createdAt,value
2022-10-23T00:01:37.238Z,13.75
2022-10-23T00:04:11.570Z,13.39
2022-10-23T00:06:38.196Z,11.71
2022-10-23T00:09:06.767Z,13.42
2022-10-23T00:11:34.821Z,13.66
2022-10-23T00:14:04.527Z,13.71
2022-10-23T00:16:31.284Z,13.71
2022-10-23T00:18:57.755Z,13.73
2022-10-23T00:21:24.841Z,13.72
2022-10-23T00:23:51.712Z,13.78
2022-10-23T00:26:18.332Z,10.91
2022-10-23T00:28:48.135Z,9.02
2022-10-23T00:31:15.577Z,12.76
2022-10-23T00:33:43.436Z,13.36
2022-10-23T00:36:12.752Z,13.49
2022-10-23T00:38:40.305Z,13.55
2022-10-23T00:41:09.621Z,13.57
2022-10-23T00:44:08.988Z,13.61
2022-10-23T00:46:37.276Z,13.60
2022-10-23T00:49:05.860Z,13.62
2022-10-23T00:51:43.663Z,13.58
2022-10-23T00:54:23.417Z,13.55
2022-10-23T00:56:52.616Z,13.59
2022-10-23T00:59:19.075Z,13.55
2022-10-23T01:01:45.817Z,13.57
2022-10-23T01:04:12.504Z,12.28
2022-10-23T01:06:54.024Z,11.22
2022-10-23T01:09:36.960Z,12.68
2022-10-23T01:12:14.960Z,8.46
2022-10-23T01:15:05.254Z,12.78
2022-10-23T01:17:51.301Z,13.16
2022-10-23T01:20:32.286Z,13.31
2022-10-23T01:23:16.791Z,13.12
2022-10-23T01:26:11.275Z,13.36
2022-10-23T01:28:52.053Z,13.40
2022-10-23T01:32:04.795Z,13.37
2022-10-23T01:34:56.403Z,13.44
2022-10-23T01:37:44.681Z,13.43
2022-10-23T01:40:23.526Z,13.47
2022-10-23T01:42:54.930Z,13.33
2022-10-23T01:45:32.773Z,13.40
2022-10-23T01:48:01.561Z,13.28
2022-10-23T01:50:30.228Z,13.38
2022-10-23T01:52:57.147Z,13.38
2022-10-23T01:55:24.868Z,13.29
2022-10-23T01:57:53.435Z,13.36
2022-10-23T02:00:20.711Z,12.81
2022-10-23T02:02:48.972Z,13.20
2022-10-23T02:05:25.769Z,13.22
2022-10-23T02:07:52.946Z,13.24
2022-10-23T02:10:20.483Z,11.73
2022-10-23T02:12:49.676Z,12.62
2022-10-23T02:15:40.569Z,11.36
2022-10-23T02:18:27.674Z,12.45
2022-10-23T02:21:18.083Z,13.02
2022-10-23T02:23:56.171Z,13.12
2022-10-23T02:26:36.695Z,13.21
2022-10-23T02:29:10.945Z,13.23
2022-10-23T02:31:37.569Z,12.19
2022-10-23T02:34:04.232Z,13.00
2022-10-23T02:36:30.725Z,13.08
2022-10-23T02:38:57.424Z,12.18
2022-10-23T02:41:40.351Z,8.20
2022-10-23T02:44:13.709Z,11.31
2022-10-23T02:46:43.083Z,12.59
2022-10-23T02:49:31.529Z,12.87
2022-10-23T02:52:23.304Z,12.66
2022-10-23T02:54:59.179Z,12.91
2022-10-23T02:58:08.144Z,10.71
2022-10-23T03:00:37.918Z,12.78
2022-10-23T03:03:13.503Z,11.03
2022-10-23T03:05:41.727Z,12.16
2022-10-23T03:08:09.689Z,12.74
2022-10-23T03:10:36.195Z,12.86
2022-10-23T03:13:02.671Z,12.90
2022-10-23T03:15:29.140Z,12.89
2022-10-23T03:17:55.603Z,12.89
2022-10-23T03:20:22.372Z,12.93
2022-10-23T03:22:48.781Z,12.87
2022-10-23T03:25:15.273Z,9.10
2022-10-23T03:27:41.700Z,12.07
2022-10-23T03:30:09.095Z,12.56
2022-10-23T03:32:35.572Z,12.69
2022-10-23T03:35:02.003Z,12.74
2022-10-23T03:37:28.422Z,12.60
2022-10-23T03:39:54.966Z,12.78
2022-10-23T03:42:21.520Z,12.76
2022-10-23T03:44:47.953Z,12.81
2022-10-23T03:47:14.412Z,8.73
2022-10-23T03:49:40.918Z,10.98
2022-10-23T03:52:08.524Z,12.17
2022-10-23T03:54:35.374Z,12.02
2022-10-23T03:57:02.292Z,12.38
2022-10-23T03:59:29.230Z,12.56
2022-10-23T04:01:55.755Z,12.58
2022-10-23T04:04:22.294Z,12.61
2022-10-23T04:06:48.756Z,12.62
2022-10-23T04:09:15.682Z,8.16
2022-10-23T04:11:42.085Z,9.28
2022-10-23T04:14:11.955Z,12.14
2022-10-23T04:16:38.516Z,11.59
2022-10-23T04:19:04.958Z,8.61
2022-10-23T04:21:31.381Z,11.32
2022-10-23T04:23:57.829Z,12.15
2022-10-23T04:26:24.293Z,12.26
2022-10-23T04:28:50.664Z,12.37
2022-10-23T04:31:17.360Z,11.13
2022-10-23T04:33:43.902Z,11.64
2022-10-23T04:36:10.495Z,12.20
2022-10-23T04:38:36.916Z,12.35
2022-10-23T04:41:03.733Z,12.35
2022-10-23T04:43:30.173Z,12.37
2022-10-23T04:45:56.543Z,12.30
2022-10-23T04:48:25.556Z,11.20
2022-10-23T04:50:59.705Z,12.18
2022-10-23T04:53:27.270Z,11.66
2022-10-23T04:55:56.921Z,9.26
2022-10-23T04:58:23.539Z,11.32
2022-10-23T05:00:50.500Z,12.04
2022-10-23T05:03:18.246Z,12.14
2022-10-23T05:05:45.606Z,12.24
2022-10-23T05:08:15.572Z,9.83
2022-10-23T05:10:44.679Z,11.70
2022-10-23T05:13:11.122Z,11.96
2022-10-23T05:15:37.611Z,12.17
2022-10-23T05:18:28.382Z,10.98
2022-10-23T05:21:01.223Z,10.45
2022-10-23T05:23:30.561Z,11.82
2022-10-23T05:25:57.006Z,12.10
2022-10-23T05:28:23.419Z,12.20
2022-10-23T05:30:50.297Z,12.22
2022-10-23T05:33:16.740Z,9.81
2022-10-23T05:35:44.606Z,11.60
2022-10-23T05:38:12.346Z,12.06
2022-10-23T05:43:10.170Z,9.65
2022-10-23T05:45:36.615Z,11.58
2022-10-23T05:48:11.079Z,11.91
2022-10-23T05:50:48.821Z,12.05
2022-10-23T05:53:15.247Z,10.94
2022-10-23T05:55:41.811Z,7.67
2022-10-23T05:58:08.237Z,10.95
2022-10-23T06:00:34.679Z,11.39
2022-10-23T06:03:02.110Z,11.07
2022-10-23T06:05:28.679Z,10.89
2022-10-23T06:08:01.361Z,11.24
2022-10-23T06:10:28.166Z,11.75
2022-10-23T06:12:54.587Z,11.92
2022-10-23T06:15:21.021Z,11.58
2022-10-23T06:17:47.404Z,11.93
2022-10-23T06:20:13.912Z,12.00
2022-10-23T06:22:40.583Z,11.99
2022-10-23T06:25:07.982Z,12.04
2022-10-23T06:27:34.411Z,10.64
2022-10-23T06:30:00.895Z,10.71
2022-10-23T06:32:30.926Z,10.12
2022-10-23T06:34:57.358Z,11.64
2022-10-23T06:37:23.749Z,10.30
2022-10-23T06:39:50.219Z,11.41
2022-10-23T06:42:16.749Z,11.81
2022-10-23T06:44:43.169Z,11.90
2022-10-23T06:47:14.334Z,11.94
2022-10-23T06:49:40.880Z,11.79
2022-10-23T06:52:14.297Z,11.84
2022-10-23T06:54:49.647Z,11.41
2022-10-23T06:57:16.065Z,11.54
2022-10-23T06:59:42.492Z,11.87
2022-10-23T07:02:09.475Z,11.66
2022-10-23T07:04:35.977Z,11.36
2022-10-23T07:07:02.359Z,11.79
2022-10-23T07:09:28.994Z,11.91
2022-10-23T07:11:55.422Z,10.80
2022-10-23T07:14:21.827Z,11.69
2022-10-23T07:16:48.209Z,11.09
2022-10-23T07:19:14.669Z,11.72
2022-10-23T07:21:41.090Z,11.86
2022-10-23T07:24:07.740Z,11.34
2022-10-23T07:26:34.133Z,11.08
2022-10-23T07:29:00.578Z,11.55
2022-10-23T07:31:28.429Z,11.49
2022-10-23T07:33:55.113Z,11.79
2022-10-23T07:36:21.756Z,11.92
2022-10-23T07:38:48.131Z,12.06
2022-10-23T07:41:15.441Z,12.10
2022-10-23T07:43:41.891Z,12.67
2022-10-23T07:46:09.845Z,12.16
2022-10-23T07:48:37.254Z,12.29
2022-10-23T07:51:11.435Z,13.15
2022-10-23T07:53:38.989Z,13.92
2022-10-23T07:56:21.327Z,12.73
2022-10-23T07:58:47.797Z,12.20
2022-10-23T08:01:21.031Z,12.78
2022-10-23T08:03:47.578Z,13.35
2022-10-23T08:06:14.342Z,12.29
2022-10-23T08:08:40.837Z,12.70
2022-10-23T08:11:07.689Z,12.48
2022-10-23T08:13:34.163Z,13.23
2022-10-23T08:16:00.639Z,13.17
2022-10-23T08:18:27.053Z,12.47
2022-10-23T08:20:53.572Z,13.06
2022-10-23T08:23:20.233Z,15.47
2022-10-23T08:25:47.161Z,15.61
2022-10-23T08:28:13.641Z,15.85
2022-10-23T08:30:40.140Z,13.99
2022-10-23T08:33:07.080Z,13.18
2022-10-23T08:35:37.845Z,14.74
2022-10-23T08:38:05.548Z,14.77
2022-10-23T08:40:32.512Z,14.06
2022-10-23T08:43:19.124Z,15.67
2022-10-23T08:45:55.242Z,17.16
2022-10-23T08:48:30.491Z,16.86
2022-10-23T08:51:05.679Z,16.89
2022-10-23T08:53:56.137Z,16.40
2022-10-23T08:56:37.384Z,20.03
2022-10-23T08:59:22.609Z,21.07
2022-10-23T09:02:02.364Z,16.59
2022-10-23T09:04:29.396Z,20.09
2022-10-23T09:07:29.547Z,21.52
2022-10-23T09:10:08.023Z,18.95
2022-10-23T09:12:34.449Z,18.73
2022-10-23T09:15:18.483Z,17.79
2022-10-23T09:17:47.133Z,19.52
2022-10-23T09:20:18.673Z,23.83
2022-10-23T09:22:46.660Z,20.75
2022-10-23T09:25:29.408Z,18.14
2022-10-23T09:28:01.472Z,15.51
2022-10-23T09:30:40.585Z,21.29
2022-10-23T09:33:18.217Z,14.99
2022-10-23T09:36:01.342Z,23.26
2022-10-23T09:38:30.861Z,25.02
2022-10-23T09:41:06.061Z,21.27
2022-10-23T09:43:32.523Z,20.60
2022-10-23T09:46:02.709Z,22.43
2022-10-23T09:48:29.651Z,18.78
2022-10-23T09:50:58.241Z,15.17
2022-10-23T09:53:31.604Z,22.54
2022-10-23T09:56:02.755Z,19.74
2022-10-23T09:58:36.240Z,21.94
2022-10-23T10:01:04.328Z,23.82
2022-10-23T10:03:30.941Z,24.85
2022-10-23T10:06:00.799Z,21.59
2022-10-23T10:08:44.483Z,16.61
2022-10-23T10:11:17.990Z,15.95
2022-10-23T10:14:18.116Z,15.43
2022-10-23T10:16:51.820Z,15.46
2022-10-23T10:19:48.619Z,17.01
2022-10-23T10:22:42.620Z,15.25
2022-10-23T10:25:19.806Z,17.48
2022-10-23T10:28:05.828Z,19.79
2022-10-23T10:30:52.339Z,16.43
2022-10-23T10:33:31.038Z,15.60
2022-10-23T10:36:12.860Z,15.92
2022-10-23T10:38:46.385Z,18.02
2022-10-23T10:41:21.745Z,17.10
2022-10-23T10:44:12.791Z,18.05
2022-10-23T10:46:56.310Z,16.87
2022-10-23T10:49:45.850Z,16.31
2022-10-23T10:52:20.587Z,17.83
2022-10-23T10:54:53.077Z,15.89
2022-10-23T10:57:37.369Z,15.64
2022-10-23T11:00:13.663Z,15.96
2022-10-23T11:02:47.757Z,15.88
2022-10-23T11:05:37.235Z,17.78
2022-10-23T11:08:22.277Z,15.19
2022-10-23T11:10:55.559Z,15.17
2022-10-23T11:13:35.771Z,15.09
2022-10-23T11:16:09.599Z,15.59
2022-10-23T11:18:37.212Z,18.03
2022-10-23T11:21:30.130Z,15.35
2022-10-23T11:24:31.651Z,16.14
2022-10-23T11:27:30.180Z,16.50
2022-10-23T11:30:17.916Z,15.18
2022-10-23T11:32:44.280Z,16.43
2022-10-23T11:35:30.699Z,17.37
2022-10-23T11:38:23.545Z,15.73
2022-10-23T11:40:54.812Z,17.80
2022-10-23T11:43:56.932Z,16.58
2022-10-23T11:46:23.304Z,17.15
2022-10-23T11:48:51.079Z,18.34
2022-10-23T11:51:32.981Z,21.92
2022-10-23T11:54:07.868Z,21.12
2022-10-23T11:56:34.505Z,18.04
2022-10-23T11:59:21.602Z,18.69
2022-10-23T12:01:51.242Z,16.98
2022-10-23T12:04:28.013Z,18.21
2022-10-23T12:07:02.487Z,19.42
2022-10-23T12:09:51.948Z,18.22
2022-10-23T12:12:28.229Z,19.98
2022-10-23T12:15:08.980Z,20.60
2022-10-23T12:17:37.969Z,16.76
2022-10-23T12:20:21.354Z,19.52
2022-10-23T12:22:47.851Z,20.32
2022-10-23T12:25:31.695Z,16.36
2022-10-23T12:28:05.603Z,19.41
2022-10-23T12:30:50.310Z,16.29
2022-10-23T12:33:29.367Z,17.76
2022-10-23T12:36:15.425Z,17.11
2022-10-23T12:38:46.705Z,16.42
2022-10-23T12:41:34.707Z,16.06
2022-10-23T12:44:03.608Z,16.72
2022-10-23T12:46:36.767Z,17.21
2022-10-23T12:49:12.720Z,17.51
2022-10-23T12:51:39.201Z,21.18
2022-10-23T12:54:15.928Z,18.26
2022-10-23T12:56:44.163Z,18.51
2022-10-23T12:59:16.438Z,20.05
2022-10-23T13:01:43.554Z,20.53
2022-10-23T13:04:10.336Z,16.99
2022-10-23T13:06:39.289Z,17.55
2022-10-23T13:09:15.220Z,16.84
2022-10-23T13:11:42.517Z,19.63
2022-10-23T13:14:13.638Z,17.78
2022-10-23T13:16:40.141Z,19.71
2022-10-23T13:19:06.611Z,16.57
2022-10-23T13:21:33.127Z,19.24
2022-10-23T13:23:59.571Z,16.85
2022-10-23T13:26:33.592Z,17.36
2022-10-23T13:29:08.713Z,16.40
2022-10-23T13:31:36.515Z,17.75
2022-10-23T13:34:05.119Z,20.25
2022-10-23T13:36:36.027Z,17.41
2022-10-23T13:39:23.958Z,16.73
2022-10-23T13:41:50.400Z,16.83
2022-10-23T13:44:19.968Z,16.49
2022-10-23T13:46:48.289Z,16.41
2022-10-23T13:49:15.702Z,16.34
2022-10-23T13:51:47.397Z,16.89
2022-10-23T13:54:17.122Z,18.39
2022-10-23T13:56:43.690Z,17.47
2022-10-23T13:59:11.457Z,17.23
2022-10-23T14:01:38.571Z,17.10
2022-10-23T14:04:05.637Z,16.55
2022-10-23T14:06:32.682Z,17.88
2022-10-23T14:08:59.237Z,17.00
2022-10-23T14:11:26.071Z,16.91
2022-10-23T14:13:52.748Z,18.62
2022-10-23T14:16:21.343Z,17.92
2022-10-23T14:18:47.932Z,16.87
2022-10-23T14:21:17.459Z,18.79
2022-10-23T14:23:43.874Z,17.71
2022-10-23T14:26:12.880Z,17.43
2022-10-23T14:28:39.730Z,16.58
2022-10-23T14:31:09.125Z,16.51
2022-10-23T14:33:35.707Z,16.71
2022-10-23T14:36:03.286Z,16.55
2022-10-23T14:38:30.039Z,16.87
2022-10-23T14:40:56.456Z,18.52
2022-10-23T14:43:23.935Z,18.33
2022-10-23T14:45:50.429Z,17.07
2022-10-23T14:48:17.631Z,16.91
2022-10-23T14:50:49.266Z,18.08
2022-10-23T14:53:16.213Z,18.57
2022-10-23T14:55:42.819Z,18.20
2022-10-23T14:58:09.728Z,16.93
2022-10-23T15:00:36.173Z,18.05
2022-10-23T15:03:02.601Z,19.76
2022-10-23T15:05:29.095Z,18.52
2022-10-23T15:07:56.216Z,20.20
2022-10-23T15:10:22.670Z,18.08
2022-10-23T15:12:49.219Z,18.54
2022-10-23T15:15:15.671Z,19.99
2022-10-23T15:17:42.357Z,17.82
2022-10-23T15:20:09.326Z,19.97
2022-10-23T15:22:35.838Z,17.67
2022-10-23T15:25:02.353Z,17.11
2022-10-23T15:27:28.901Z,18.26
2022-10-23T15:29:55.381Z,18.21
2022-10-23T15:32:21.755Z,17.60
2022-10-23T15:34:49.697Z,17.32
2022-10-23T15:37:16.395Z,17.05
2022-10-23T15:39:43.092Z,17.48
2022-10-23T15:42:09.914Z,18.69
2022-10-23T15:44:36.542Z,17.09
2022-10-23T15:47:03.028Z,18.76
2022-10-23T15:49:29.956Z,18.11
2022-10-23T15:51:57.287Z,17.42
2022-10-23T15:54:24.616Z,16.86
2022-10-23T15:56:53.905Z,18.43
2022-10-23T15:59:23.636Z,17.33
2022-10-23T16:01:50.934Z,17.67
2022-10-23T16:04:18.173Z,18.96
2022-10-23T16:06:44.978Z,18.47
2022-10-23T16:09:12.124Z,17.53
2022-10-23T16:11:39.678Z,18.28
2022-10-23T16:14:06.881Z,17.24
2022-10-23T16:16:34.320Z,18.07
2022-10-23T16:19:02.722Z,17.26
2022-10-23T16:21:35.344Z,19.37
2022-10-23T16:24:03.666Z,18.59
2022-10-23T16:26:30.510Z,17.29
2022-10-23T16:29:00.344Z,17.85
2022-10-23T16:31:27.781Z,18.12
2022-10-23T16:33:54.638Z,17.23
2022-10-23T16:36:21.244Z,17.35
2022-10-23T16:38:47.651Z,17.05
2022-10-23T16:41:14.162Z,17.30
2022-10-23T16:43:40.610Z,17.04
2022-10-23T16:46:12.418Z,16.94
2022-10-23T16:48:39.921Z,17.29
2022-10-23T16:51:15.168Z,17.30
2022-10-23T16:53:43.255Z,16.92
2022-10-23T16:56:11.837Z,16.99
2022-10-23T16:58:40.842Z,16.97
2022-10-23T17:01:13.696Z,17.00
2022-10-23T17:03:42.928Z,16.87
2022-10-23T17:06:12.080Z,16.98
2022-10-23T17:08:39.649Z,17.56
2022-10-23T17:11:18.527Z,17.90
2022-10-23T17:13:47.620Z,17.01
2022-10-23T17:16:19.931Z,17.01
2022-10-23T17:18:46.833Z,16.99
2022-10-23T17:21:15.075Z,16.87
2022-10-23T17:23:42.703Z,16.88
2022-10-23T17:26:11.484Z,17.37
2022-10-23T17:28:40.494Z,17.28
2022-10-23T17:31:17.916Z,17.19
2022-10-23T17:33:45.172Z,18.34
2022-10-23T17:36:13.534Z,17.18
2022-10-23T17:38:43.387Z,17.24
2022-10-23T17:41:11.540Z,17.68
2022-10-23T17:43:38.239Z,17.97
2022-10-23T17:46:06.360Z,17.12
2022-10-23T17:48:32.800Z,17.46
2022-10-23T17:51:05.275Z,17.13
2022-10-23T17:53:32.269Z,17.19
2022-10-23T17:56:02.223Z,17.00
2022-10-23T17:58:28.887Z,17.82
2022-10-23T18:00:55.399Z,17.60
2022-10-23T18:03:21.903Z,17.43
2022-10-23T18:05:48.317Z,17.17
2022-10-23T18:08:14.812Z,17.48
2022-10-23T18:10:41.236Z,17.23
2022-10-23T18:13:07.647Z,17.34
2022-10-23T18:15:35.777Z,16.80
2022-10-23T18:18:07.715Z,17.11
2022-10-23T18:20:39.855Z,17.04
2022-10-23T18:23:07.119Z,16.89
2022-10-23T18:25:34.722Z,16.92
2022-10-23T18:28:02.532Z,16.90
2022-10-23T18:30:29.402Z,17.29
2022-10-23T18:32:58.051Z,17.10
2022-10-23T18:35:25.189Z,16.79
2022-10-23T18:37:51.772Z,16.76
2022-10-23T18:40:18.588Z,16.77
2022-10-23T18:42:45.313Z,16.90
2022-10-23T18:45:13.506Z,16.82
2022-10-23T18:47:40.000Z,16.81
2022-10-23T18:50:07.057Z,16.76
2022-10-23T18:52:33.455Z,16.89
2022-10-23T18:55:00.274Z,16.64
2022-10-23T18:57:26.706Z,16.74
2022-10-23T18:59:56.369Z,17.02
2022-10-23T19:02:22.937Z,16.54
2022-10-23T19:04:49.451Z,16.69
2022-10-23T19:07:16.288Z,17.03
2022-10-23T19:09:42.790Z,16.88
2022-10-23T19:12:10.378Z,16.82
2022-10-23T19:14:36.912Z,16.80
2022-10-23T19:17:08.183Z,16.78
2022-10-23T19:19:42.153Z,16.83
2022-10-23T19:22:11.278Z,15.78
2022-10-23T19:24:51.028Z,16.05
2022-10-23T19:27:19.293Z,16.54
2022-10-23T19:29:47.979Z,16.70
2022-10-23T19:32:14.900Z,16.42
2022-10-23T19:34:41.432Z,16.49
2022-10-23T19:37:07.994Z,16.61
2022-10-23T19:39:34.509Z,16.70
2022-10-23T19:42:00.979Z,16.85
2022-10-23T19:44:28.535Z,16.75
2022-10-23T19:46:54.999Z,17.20
2022-10-23T19:49:23.739Z,16.81
2022-10-23T19:51:51.499Z,17.59
2022-10-23T19:54:20.267Z,16.88
2022-10-23T19:56:47.535Z,17.28
2022-10-23T19:59:14.581Z,17.20
2022-10-23T20:01:45.041Z,16.85
2022-10-23T20:04:15.516Z,17.31
2022-10-23T20:06:41.981Z,17.14
2022-10-23T20:09:09.809Z,17.17
2022-10-23T20:11:38.758Z,17.05
2022-10-23T20:14:05.265Z,16.84
2022-10-23T20:16:34.920Z,16.80
2022-10-23T20:19:04.238Z,16.80
2022-10-23T20:21:30.706Z,16.86
2022-10-23T20:23:58.622Z,16.85
2022-10-23T20:26:25.913Z,16.80
2022-10-23T20:28:54.876Z,16.81
2022-10-23T20:31:23.504Z,16.86
2022-10-23T20:33:50.814Z,16.41
2022-10-23T20:36:29.574Z,16.67
2022-10-23T20:38:57.639Z,16.73
2022-10-23T20:41:26.973Z,16.66
2022-10-23T20:43:55.430Z,16.70
2022-10-23T20:46:22.882Z,16.72
2022-10-23T20:48:49.870Z,16.79
2022-10-23T20:51:19.363Z,16.82
2022-10-23T20:53:46.241Z,16.33
2022-10-23T20:56:14.354Z,16.05
2022-10-23T20:58:40.844Z,16.38
2022-10-23T21:01:09.938Z,16.66
2022-10-23T21:03:37.404Z,16.67
2022-10-23T21:06:08.857Z,15.79
2022-10-23T21:08:35.914Z,15.53
2022-10-23T21:11:02.366Z,16.38
2022-10-23T21:13:29.041Z,16.64
2022-10-23T21:15:56.135Z,16.70
2022-10-23T21:18:34.061Z,15.81
2022-10-23T21:21:11.735Z,16.59
2022-10-23T21:23:38.395Z,16.68
2022-10-23T21:26:07.498Z,16.67
2022-10-23T21:28:34.710Z,15.45
2022-10-23T21:31:06.401Z,15.84
2022-10-23T21:33:33.822Z,16.26
2022-10-23T21:36:11.843Z,16.27
2022-10-23T21:38:39.786Z,16.62
2022-10-23T21:41:11.540Z,16.66
2022-10-23T21:43:38.072Z,16.61
2022-10-23T21:46:05.893Z,16.66
2022-10-23T21:48:33.175Z,16.69
2022-10-23T21:51:00.235Z,16.77
2022-10-23T21:53:27.713Z,16.77
2022-10-23T21:55:56.143Z,16.89
2022-10-23T21:58:22.547Z,17.54
2022-10-23T22:00:48.980Z,17.08
2022-10-23T22:03:15.420Z,17.36
2022-10-23T22:05:41.831Z,16.82
2022-10-23T22:08:08.276Z,16.72
2022-10-23T22:10:35.149Z,16.73
2022-10-23T22:13:01.528Z,16.94
2022-10-23T22:15:28.023Z,16.80
2022-10-23T22:17:54.484Z,17.32
2022-10-23T22:20:21.162Z,16.99
2022-10-23T22:22:47.629Z,16.96
2022-10-23T22:25:14.055Z,16.89
2022-10-23T22:27:40.442Z,16.93
2022-10-23T22:30:07.271Z,16.95
2022-10-23T22:32:35.464Z,17.01
2022-10-23T22:35:01.843Z,16.89
2022-10-23T22:37:28.284Z,16.85
2022-10-23T22:39:54.754Z,17.24
2022-10-23T22:42:21.136Z,16.94
2022-10-23T22:44:47.587Z,17.00
2022-10-23T22:47:13.999Z,17.05
2022-10-23T22:49:40.438Z,17.03
2022-10-23T22:52:06.865Z,17.29
2022-10-23T22:54:33.319Z,17.06
2022-10-23T22:56:59.768Z,17.14
2022-10-23T22:59:26.441Z,16.84
2022-10-23T23:01:52.906Z,16.83
2022-10-23T23:04:37.305Z,17.35
2022-10-23T23:07:06.728Z,17.10
2022-10-23T23:09:36.288Z,16.93
2022-10-23T23:12:02.684Z,16.81
2022-10-23T23:14:29.126Z,16.95
2022-10-23T23:16:55.580Z,16.87
2022-10-23T23:19:22.943Z,16.82
2022-10-23T23:21:49.631Z,16.74
2022-10-23T23:24:16.025Z,16.69
2022-10-23T23:26:42.467Z,16.67
2022-10-23T23:29:08.893Z,16.68
2022-10-23T23:31:35.352Z,16.77
2022-10-23T23:34:01.886Z,16.76
2022-10-23T23:36:28.920Z,17.04
2022-10-23T23:38:57.246Z,16.87
2022-10-23T23:41:25.302Z,16.66
2022-10-23T23:43:54.367Z,16.65
2022-10-23T23:46:20.928Z,16.75
2022-10-23T23:48:49.290Z,16.77
2022-10-23T23:51:18.428Z,16.78
2022-10-23T23:53:44.909Z,16.77
2022-10-23T23:56:11.368Z,16.76
2022-10-23T23:58:37.881Z,16.84
